Williamsville, New York
Current Conditions -  °F | °C
As of 3:54 PM on Friday 28 Nov 2014 (Local Time) from KBUF Reporting Station
Broken Clouds Broken Clouds  
Wind Chill: 15°   Ceiling: 3700
Heat Index: 25°   Visibility: 10mi
Dew Point: 14°   Wind: 10mph
Humidity: 63%   Direction: 290°WNW
Pressure: 30.2"   Gusts: NA
Location:  42.9241°N, 78.8144°W
Report Text: KBUF 282054Z 29009KT 10SM BKN037 BKN130 M04/M10 A3020 RMK AO2 SNE04 SLP240 P0000 60000 T10391100 56006
Loading
Personal Weather Stations






























Interactive Weather Map New forecast layout! Learn more

10-Day Weather Forecast

Advertisements
Track Severe Weather on mobile